sensor_id;sensor_type;location;lat;lon;timestamp;P1;durP1;ratioP1;P2;durP2;ratioP2
18999;SDS011;9633;50.980;13.850;2022-12-07T00:00:20;18.80;;;14.17;;
18999;SDS011;9633;50.980;13.850;2022-12-07T00:01:53;19.63;;;12.87;;
18999;SDS011;9633;50.980;13.850;2022-12-07T00:03:27;17.17;;;12.57;;
18999;SDS011;9633;50.980;13.850;2022-12-07T00:05:01;18.70;;;13.10;;
18999;SDS011;9633;50.980;13.850;2022-12-07T00:06:34;19.33;;;12.80;;
18999;SDS011;9633;50.980;13.850;2022-12-07T00:08:09;17.17;;;12.73;;
18999;SDS011;9633;50.980;13.850;2022-12-07T00:09:41;17.37;;;11.80;;
18999;SDS011;9633;50.980;13.850;2022-12-07T00:11:15;18.97;;;12.87;;
18999;SDS011;9633;50.980;13.850;2022-12-07T00:12:50;18.30;;;13.10;;
18999;SDS011;9633;50.980;13.850;2022-12-07T00:14:23;17.37;;;12.23;;
18999;SDS011;9633;50.980;13.850;2022-12-07T00:15:59;15.60;;;12.10;;
18999;SDS011;9633;50.980;13.850;2022-12-07T00:17:33;17.97;;;12.83;;
18999;SDS011;9633;50.980;13.850;2022-12-07T00:19:09;15.87;;;11.60;;
18999;SDS011;9633;50.980;13.850;2022-12-07T00:20:43;18.77;;;13.07;;
18999;SDS011;9633;50.980;13.850;2022-12-07T00:22:16;18.03;;;12.60;;
18999;SDS011;9633;50.980;13.850;2022-12-07T00:23:49;16.20;;;11.43;;
18999;SDS011;9633;50.980;13.850;2022-12-07T00:25:24;17.50;;;12.13;;
18999;SDS011;9633;50.980;13.850;2022-12-07T00:26:57;17.57;;;12.30;;
18999;SDS011;9633;50.980;13.850;2022-12-07T00:28:31;17.10;;;11.93;;
18999;SDS011;9633;50.980;13.850;2022-12-07T00:30:05;16.43;;;11.53;;
18999;SDS011;9633;50.980;13.850;2022-12-07T00:31:39;17.70;;;12.23;;
18999;SDS011;9633;50.980;13.850;2022-12-07T00:33:12;15.80;;;11.53;;
18999;SDS011;9633;50.980;13.850;2022-12-07T00:34:46;16.07;;;12.10;;
18999;SDS011;9633;50.980;13.850;2022-12-07T00:36:21;15.37;;;11.37;;
18999;SDS011;9633;50.980;13.850;2022-12-07T00:37:57;17.03;;;11.47;;
18999;SDS011;9633;50.980;13.850;2022-12-07T00:39:30;16.67;;;11.50;;
18999;SDS011;9633;50.980;13.850;2022-12-07T00:41:05;15.97;;;11.33;;
18999;SDS011;9633;50.980;13.850;2022-12-07T00:42:39;18.53;;;12.20;;
18999;SDS011;9633;50.980;13.850;2022-12-07T00:44:12;17.57;;;10.73;;
18999;SDS011;9633;50.980;13.850;2022-12-07T00:45:45;16.07;;;11.10;;
18999;SDS011;9633;50.980;13.850;2022-12-07T00:47:18;16.07;;;10.73;;
18999;SDS011;9633;50.980;13.850;2022-12-07T00:48:52;16.47;;;11.13;;
18999;SDS011;9633;50.980;13.850;2022-12-07T00:50:27;16.50;;;10.93;;
18999;SDS011;9633;50.980;13.850;2022-12-07T00:52:00;16.93;;;11.50;;
18999;SDS011;9633;50.980;13.850;2022-12-07T00:53:33;18.47;;;11.10;;
18999;SDS011;9633;50.980;13.850;2022-12-07T00:55:12;17.17;;;10.37;;
18999;SDS011;9633;50.980;13.850;2022-12-07T00:56:45;16.33;;;11.47;;
18999;SDS011;9633;50.980;13.850;2022-12-07T00:58:18;18.33;;;11.40;;
18999;SDS011;9633;50.980;13.850;2022-12-07T00:59:51;16.80;;;10.77;;
18999;SDS011;9633;50.980;13.850;2022-12-07T01:01:27;16.20;;;10.63;;
18999;SDS011;9633;50.980;13.850;2022-12-07T01:03:02;17.20;;;10.77;;
18999;SDS011;9633;50.980;13.850;2022-12-07T01:04:34;17.03;;;11.90;;
18999;SDS011;9633;50.980;13.850;2022-12-07T01:06:09;16.37;;;11.40;;
18999;SDS011;9633;50.980;13.850;2022-12-07T01:07:45;16.03;;;10.30;;
18999;SDS011;9633;50.980;13.850;2022-12-07T01:09:18;16.83;;;11.30;;
18999;SDS011;9633;50.980;13.850;2022-12-07T01:10:58;16.43;;;10.63;;
18999;SDS011;9633;50.980;13.850;2022-12-07T01:12:31;16.40;;;10.83;;
18999;SDS011;9633;50.980;13.850;2022-12-07T01:14:04;16.83;;;11.37;;
18999;SDS011;9633;50.980;13.850;2022-12-07T01:15:38;16.47;;;11.07;;
18999;SDS011;9633;50.980;13.850;2022-12-07T01:17:12;16.17;;;10.73;;
18999;SDS011;9633;50.980;13.850;2022-12-07T01:18:45;18.40;;;11.30;;
18999;SDS011;9633;50.980;13.850;2022-12-07T01:20:20;18.03;;;10.57;;
18999;SDS011;9633;50.980;13.850;2022-12-07T01:21:54;17.13;;;11.20;;
18999;SDS011;9633;50.980;13.850;2022-12-07T01:23:27;15.50;;;11.17;;
18999;SDS011;9633;50.980;13.850;2022-12-07T01:25:01;15.87;;;11.03;;
18999;SDS011;9633;50.980;13.850;2022-12-07T01:26:34;17.63;;;10.77;;
18999;SDS011;9633;50.980;13.850;2022-12-07T01:28:07;18.97;;;11.50;;
18999;SDS011;9633;50.980;13.850;2022-12-07T01:29:40;17.50;;;11.27;;
18999;SDS011;9633;50.980;13.850;2022-12-07T01:31:14;16.77;;;11.37;;
18999;SDS011;9633;50.980;13.850;2022-12-07T01:32:50;16.63;;;11.37;;
18999;SDS011;9633;50.980;13.850;2022-12-07T01:34:23;18.33;;;12.23;;
18999;SDS011;9633;50.980;13.850;2022-12-07T01:36:00;19.00;;;12.03;;
18999;SDS011;9633;50.980;13.850;2022-12-07T01:37:36;19.23;;;11.77;;
18999;SDS011;9633;50.980;13.850;2022-12-07T01:39:10;18.43;;;12.37;;
18999;SDS011;9633;50.980;13.850;2022-12-07T01:40:43;16.83;;;11.23;;
18999;SDS011;9633;50.980;13.850;2022-12-07T01:42:16;17.33;;;12.10;;
18999;SDS011;9633;50.980;13.850;2022-12-07T01:44:08;17.87;;;11.50;;
18999;SDS011;9633;50.980;13.850;2022-12-07T01:45:43;16.73;;;11.07;;
18999;SDS011;9633;50.980;13.850;2022-12-07T01:47:16;16.63;;;11.13;;
18999;SDS011;9633;50.980;13.850;2022-12-07T01:48:50;17.33;;;11.27;;
18999;SDS011;9633;50.980;13.850;2022-12-07T01:50:24;16.80;;;11.43;;
18999;SDS011;9633;50.980;13.850;2022-12-07T01:52:09;17.77;;;11.50;;
18999;SDS011;9633;50.980;13.850;2022-12-07T01:53:47;15.97;;;10.33;;
18999;SDS011;9633;50.980;13.850;2022-12-07T01:55:19;17.57;;;10.27;;
18999;SDS011;9633;50.980;13.850;2022-12-07T01:56:53;16.07;;;9.83;;
18999;SDS011;9633;50.980;13.850;2022-12-07T01:58:28;14.20;;;9.97;;
18999;SDS011;9633;50.980;13.850;2022-12-07T02:00:03;15.87;;;10.00;;
18999;SDS011;9633;50.980;13.850;2022-12-07T02:01:45;17.50;;;10.97;;
18999;SDS011;9633;50.980;13.850;2022-12-07T02:03:19;14.60;;;9.90;;
18999;SDS011;9633;50.980;13.850;2022-12-07T02:04:56;17.37;;;10.80;;
18999;SDS011;9633;50.980;13.850;2022-12-07T02:06:31;17.23;;;10.80;;
18999;SDS011;9633;50.980;13.850;2022-12-07T02:08:03;16.23;;;11.30;;
18999;SDS011;9633;50.980;13.850;2022-12-07T02:09:38;15.43;;;10.77;;
18999;SDS011;9633;50.980;13.850;2022-12-07T02:11:11;14.60;;;10.47;;
18999;SDS011;9633;50.980;13.850;2022-12-07T02:12:44;14.07;;;10.10;;
18999;SDS011;9633;50.980;13.850;2022-12-07T02:14:21;13.17;;;8.57;;
18999;SDS011;9633;50.980;13.850;2022-12-07T02:16:00;15.57;;;9.93;;
18999;SDS011;9633;50.980;13.850;2022-12-07T02:17:47;15.60;;;10.23;;
18999;SDS011;9633;50.980;13.850;2022-12-07T02:21:40;10.37;;;6.77;;
18999;SDS011;9633;50.980;13.850;2022-12-07T02:23:29;11.53;;;7.60;;
18999;SDS011;9633;50.980;13.850;2022-12-07T02:25:15;10.57;;;7.10;;
18999;SDS011;9633;50.980;13.850;2022-12-07T02:27:04;11.37;;;7.63;;
18999;SDS011;9633;50.980;13.850;2022-12-07T02:28:51;10.60;;;6.90;;
18999;SDS011;9633;50.980;13.850;2022-12-07T02:30:39;11.67;;;7.50;;
18999;SDS011;9633;50.980;13.850;2022-12-07T02:32:18;10.60;;;7.80;;
18999;SDS011;9633;50.980;13.850;2022-12-07T02:33:59;10.47;;;7.30;;
18999;SDS011;9633;50.980;13.850;2022-12-07T02:35:39;10.87;;;7.47;;
18999;SDS011;9633;50.980;13.850;2022-12-07T02:37:18;10.33;;;7.50;;
18999;SDS011;9633;50.980;13.850;2022-12-07T02:38:58;10.60;;;7.57;;
18999;SDS011;9633;50.980;13.850;2022-12-07T02:40:35;10.87;;;7.40;;
18999;SDS011;9633;50.980;13.850;2022-12-07T02:42:13;10.53;;;7.60;;
18999;SDS011;9633;50.980;13.850;2022-12-07T02:43:50;12.53;;;7.93;;
18999;SDS011;9633;50.980;13.850;2022-12-07T02:45:26;12.20;;;8.20;;
18999;SDS011;9633;50.980;13.850;2022-12-07T02:47:04;10.67;;;7.70;;
18999;SDS011;9633;50.980;13.850;2022-12-07T02:48:41;13.80;;;8.97;;
18999;SDS011;9633;50.980;13.850;2022-12-07T02:50:16;12.37;;;8.10;;
18999;SDS011;9633;50.980;13.850;2022-12-07T02:51:50;11.43;;;8.40;;
18999;SDS011;9633;50.980;13.850;2022-12-07T02:53:28;11.80;;;8.40;;
18999;SDS011;9633;50.980;13.850;2022-12-07T02:55:03;11.67;;;8.20;;
18999;SDS011;9633;50.980;13.850;2022-12-07T02:56:38;13.23;;;8.60;;
18999;SDS011;9633;50.980;13.850;2022-12-07T02:58:20;15.53;;;8.90;;
18999;SDS011;9633;50.980;13.850;2022-12-07T03:00:06;14.00;;;9.03;;
18999;SDS011;9633;50.980;13.850;2022-12-07T03:01:42;13.00;;;8.80;;
18999;SDS011;9633;50.980;13.850;2022-12-07T03:03:23;13.93;;;9.43;;
18999;SDS011;9633;50.980;13.850;2022-12-07T03:05:00;12.10;;;8.63;;
18999;SDS011;9633;50.980;13.850;2022-12-07T03:06:47;13.23;;;9.20;;
18999;SDS011;9633;50.980;13.850;2022-12-07T03:08:25;14.33;;;9.60;;
18999;SDS011;9633;50.980;13.850;2022-12-07T03:10:07;13.37;;;9.43;;
18999;SDS011;9633;50.980;13.850;2022-12-07T03:11:47;14.80;;;9.70;;
18999;SDS011;9633;50.980;13.850;2022-12-07T03:13:24;15.27;;;9.80;;
18999;SDS011;9633;50.980;13.850;2022-12-07T03:15:03;15.10;;;10.70;;
18999;SDS011;9633;50.980;13.850;2022-12-07T03:16:43;16.50;;;11.13;;
18999;SDS011;9633;50.980;13.850;2022-12-07T03:18:20;15.23;;;10.17;;
18999;SDS011;9633;50.980;13.850;2022-12-07T03:19:57;15.73;;;10.90;;
18999;SDS011;9633;50.980;13.850;2022-12-07T03:21:33;17.80;;;11.53;;
18999;SDS011;9633;50.980;13.850;2022-12-07T03:23:11;15.43;;;10.97;;
18999;SDS011;9633;50.980;13.850;2022-12-07T03:24:47;16.63;;;11.53;;
18999;SDS011;9633;50.980;13.850;2022-12-07T03:26:26;16.13;;;11.83;;
18999;SDS011;9633;50.980;13.850;2022-12-07T03:28:05;15.93;;;11.50;;
18999;SDS011;9633;50.980;13.850;2022-12-07T03:29:41;16.37;;;11.17;;
18999;SDS011;9633;50.980;13.850;2022-12-07T03:31:19;18.30;;;12.53;;
18999;SDS011;9633;50.980;13.850;2022-12-07T03:32:56;15.57;;;11.43;;
18999;SDS011;9633;50.980;13.850;2022-12-07T03:34:34;16.20;;;11.57;;
18999;SDS011;9633;50.980;13.850;2022-12-07T03:36:14;16.20;;;11.17;;
18999;SDS011;9633;50.980;13.850;2022-12-07T03:37:53;15.40;;;11.70;;
18999;SDS011;9633;50.980;13.850;2022-12-07T03:39:30;19.13;;;12.07;;
18999;SDS011;9633;50.980;13.850;2022-12-07T03:41:10;19.13;;;12.40;;
18999;SDS011;9633;50.980;13.850;2022-12-07T03:42:48;16.27;;;11.57;;
18999;SDS011;9633;50.980;13.850;2022-12-07T03:44:23;15.50;;;11.37;;
18999;SDS011;9633;50.980;13.850;2022-12-07T03:46:00;15.80;;;10.97;;
18999;SDS011;9633;50.980;13.850;2022-12-07T03:47:42;16.93;;;11.50;;
18999;SDS011;9633;50.980;13.850;2022-12-07T03:49:21;17.47;;;11.70;;
18999;SDS011;9633;50.980;13.850;2022-12-07T03:50:59;18.13;;;11.60;;
18999;SDS011;9633;50.980;13.850;2022-12-07T03:52:38;19.87;;;11.93;;
18999;SDS011;9633;50.980;13.850;2022-12-07T03:54:14;17.57;;;11.50;;
18999;SDS011;9633;50.980;13.850;2022-12-07T03:55:52;19.13;;;12.07;;
18999;SDS011;9633;50.980;13.850;2022-12-07T03:57:26;18.13;;;11.63;;
18999;SDS011;9633;50.980;13.850;2022-12-07T03:59:01;16.40;;;11.43;;
18999;SDS011;9633;50.980;13.850;2022-12-07T04:00:34;19.00;;;12.17;;
18999;SDS011;9633;50.980;13.850;2022-12-07T04:02:07;18.00;;;12.03;;
18999;SDS011;9633;50.980;13.850;2022-12-07T04:03:45;16.17;;;11.77;;
18999;SDS011;9633;50.980;13.850;2022-12-07T04:05:18;16.10;;;10.93;;
18999;SDS011;9633;50.980;13.850;2022-12-07T04:06:51;18.50;;;11.80;;
18999;SDS011;9633;50.980;13.850;2022-12-07T04:08:24;18.00;;;11.93;;
18999;SDS011;9633;50.980;13.850;2022-12-07T04:09:57;17.63;;;11.98;;
18999;SDS011;9633;50.980;13.850;2022-12-07T04:11:31;17.03;;;11.33;;
18999;SDS011;9633;50.980;13.850;2022-12-07T04:13:04;18.27;;;12.27;;
18999;SDS011;9633;50.980;13.850;2022-12-07T04:14:37;17.30;;;12.03;;
18999;SDS011;9633;50.980;13.850;2022-12-07T04:16:09;18.07;;;12.00;;
18999;SDS011;9633;50.980;13.850;2022-12-07T04:17:43;17.50;;;11.73;;
18999;SDS011;9633;50.980;13.850;2022-12-07T04:19:17;18.83;;;12.30;;
18999;SDS011;9633;50.980;13.850;2022-12-07T04:20:52;16.93;;;11.00;;
18999;SDS011;9633;50.980;13.850;2022-12-07T04:22:25;19.00;;;11.63;;
18999;SDS011;9633;50.980;13.850;2022-12-07T04:23:58;17.53;;;11.60;;
18999;SDS011;9633;50.980;13.850;2022-12-07T04:25:31;17.20;;;11.80;;
18999;SDS011;9633;50.980;13.850;2022-12-07T04:27:04;16.33;;;11.30;;
18999;SDS011;9633;50.980;13.850;2022-12-07T04:28:37;16.83;;;11.18;;
18999;SDS011;9633;50.980;13.850;2022-12-07T04:30:10;16.93;;;10.90;;
18999;SDS011;9633;50.980;13.850;2022-12-07T04:31:44;16.73;;;11.02;;
18999;SDS011;9633;50.980;13.850;2022-12-07T04:33:17;16.97;;;10.87;;
18999;SDS011;9633;50.980;13.850;2022-12-07T04:34:52;17.97;;;12.00;;
18999;SDS011;9633;50.980;13.850;2022-12-07T04:36:26;16.30;;;11.77;;
18999;SDS011;9633;50.980;13.850;2022-12-07T04:37:59;18.23;;;12.53;;
18999;SDS011;9633;50.980;13.850;2022-12-07T04:39:32;15.87;;;11.17;;
18999;SDS011;9633;50.980;13.850;2022-12-07T04:41:06;17.30;;;11.73;;
18999;SDS011;9633;50.980;13.850;2022-12-07T04:42:40;18.07;;;12.10;;
18999;SDS011;9633;50.980;13.850;2022-12-07T04:44:14;19.37;;;11.50;;
18999;SDS011;9633;50.980;13.850;2022-12-07T04:45:47;19.03;;;11.80;;
18999;SDS011;9633;50.980;13.850;2022-12-07T04:47:20;16.50;;;10.40;;
18999;SDS011;9633;50.980;13.850;2022-12-07T04:48:53;17.63;;;11.10;;
18999;SDS011;9633;50.980;13.850;2022-12-07T04:50:28;15.70;;;10.63;;
18999;SDS011;9633;50.980;13.850;2022-12-07T04:52:01;15.10;;;10.43;;
18999;SDS011;9633;50.980;13.850;2022-12-07T04:53:34;14.80;;;10.03;;
18999;SDS011;9633;50.980;13.850;2022-12-07T04:55:06;17.50;;;10.70;;
18999;SDS011;9633;50.980;13.850;2022-12-07T04:56:40;16.93;;;11.03;;
18999;SDS011;9633;50.980;13.850;2022-12-07T04:58:13;16.37;;;10.77;;
18999;SDS011;9633;50.980;13.850;2022-12-07T04:59:46;18.00;;;11.47;;
18999;SDS011;9633;50.980;13.850;2022-12-07T05:01:19;16.77;;;10.33;;
18999;SDS011;9633;50.980;13.850;2022-12-07T05:02:52;17.67;;;10.88;;
18999;SDS011;9633;50.980;13.850;2022-12-07T05:04:25;17.85;;;10.68;;
18999;SDS011;9633;50.980;13.850;2022-12-07T05:06:00;19.50;;;11.87;;
18999;SDS011;9633;50.980;13.850;2022-12-07T05:07:33;16.65;;;11.00;;
18999;SDS011;9633;50.980;13.850;2022-12-07T05:09:06;17.20;;;11.25;;
18999;SDS011;9633;50.980;13.850;2022-12-07T05:10:39;19.98;;;11.15;;
18999;SDS011;9633;50.980;13.850;2022-12-07T05:12:12;16.50;;;10.70;;
18999;SDS011;9633;50.980;13.850;2022-12-07T05:13:45;17.80;;;10.65;;
18999;SDS011;9633;50.980;13.850;2022-12-07T05:15:19;16.23;;;10.80;;
18999;SDS011;9633;50.980;13.850;2022-12-07T05:16:52;17.05;;;11.13;;
18999;SDS011;9633;50.980;13.850;2022-12-07T05:18:25;17.70;;;11.07;;
18999;SDS011;9633;50.980;13.850;2022-12-07T05:19:57;19.40;;;11.13;;
18999;SDS011;9633;50.980;13.850;2022-12-07T05:21:32;19.47;;;11.23;;
18999;SDS011;9633;50.980;13.850;2022-12-07T05:23:06;18.63;;;10.77;;
18999;SDS011;9633;50.980;13.850;2022-12-07T05:24:39;17.40;;;11.32;;
18999;SDS011;9633;50.980;13.850;2022-12-07T05:26:12;19.58;;;11.35;;
18999;SDS011;9633;50.980;13.850;2022-12-07T05:27:45;17.98;;;10.95;;
18999;SDS011;9633;50.980;13.850;2022-12-07T05:29:18;18.58;;;11.10;;
18999;SDS011;9633;50.980;13.850;2022-12-07T05:30:51;18.90;;;12.10;;
18999;SDS011;9633;50.980;13.850;2022-12-07T05:32:30;21.35;;;12.20;;
18999;SDS011;9633;50.980;13.850;2022-12-07T05:34:03;21.27;;;11.55;;
18999;SDS011;9633;50.980;13.850;2022-12-07T05:35:36;23.33;;;11.93;;
18999;SDS011;9633;50.980;13.850;2022-12-07T05:37:11;20.67;;;12.25;;
18999;SDS011;9633;50.980;13.850;2022-12-07T05:38:44;21.92;;;11.82;;
18999;SDS011;9633;50.980;13.850;2022-12-07T05:40:16;19.08;;;11.23;;
18999;SDS011;9633;50.980;13.850;2022-12-07T05:41:50;20.17;;;12.07;;
18999;SDS011;9633;50.980;13.850;2022-12-07T05:43:52;20.30;;;11.38;;
18999;SDS011;9633;50.980;13.850;2022-12-07T05:45:26;20.40;;;12.45;;
18999;SDS011;9633;50.980;13.850;2022-12-07T05:46:59;25.63;;;12.80;;
18999;SDS011;9633;50.980;13.850;2022-12-07T05:48:32;22.27;;;12.27;;
18999;SDS011;9633;50.980;13.850;2022-12-07T05:50:05;19.25;;;11.23;;
18999;SDS011;9633;50.980;13.850;2022-12-07T05:51:39;21.48;;;13.10;;
18999;SDS011;9633;50.980;13.850;2022-12-07T05:53:14;18.13;;;11.55;;
18999;SDS011;9633;50.980;13.850;2022-12-07T05:54:53;19.90;;;11.48;;
18999;SDS011;9633;50.980;13.850;2022-12-07T05:56:26;19.98;;;11.60;;
18999;SDS011;9633;50.980;13.850;2022-12-07T05:57:59;21.88;;;11.45;;
18999;SDS011;9633;50.980;13.850;2022-12-07T05:59:50;19.90;;;11.00;;
18999;SDS011;9633;50.980;13.850;2022-12-07T06:01:23;19.47;;;11.60;;
18999;SDS011;9633;50.980;13.850;2022-12-07T06:02:55;19.10;;;10.23;;
18999;SDS011;9633;50.980;13.850;2022-12-07T06:04:28;16.13;;;10.27;;
18999;SDS011;9633;50.980;13.850;2022-12-07T06:06:03;18.50;;;11.05;;
18999;SDS011;9633;50.980;13.850;2022-12-07T06:07:35;17.10;;;10.27;;
18999;SDS011;9633;50.980;13.850;2022-12-07T06:09:10;15.43;;;10.53;;
18999;SDS011;9633;50.980;13.850;2022-12-07T06:10:44;17.07;;;10.70;;
18999;SDS011;9633;50.980;13.850;2022-12-07T06:12:38;17.23;;;10.67;;
18999;SDS011;9633;50.980;13.850;2022-12-07T06:14:13;15.60;;;9.40;;
18999;SDS011;9633;50.980;13.850;2022-12-07T06:15:47;13.73;;;8.93;;
18999;SDS011;9633;50.980;13.850;2022-12-07T06:17:20;14.33;;;8.57;;
18999;SDS011;9633;50.980;13.850;2022-12-07T06:18:53;12.07;;;7.45;;
18999;SDS011;9633;50.980;13.850;2022-12-07T06:20:25;10.43;;;7.13;;
18999;SDS011;9633;50.980;13.850;2022-12-07T06:21:58;11.77;;;7.28;;
18999;SDS011;9633;50.980;13.850;2022-12-07T06:23:32;9.30;;;6.50;;
18999;SDS011;9633;50.980;13.850;2022-12-07T06:25:06;10.10;;;6.63;;
18999;SDS011;9633;50.980;13.850;2022-12-07T06:26:41;9.30;;;6.18;;
18999;SDS011;9633;50.980;13.850;2022-12-07T06:28:14;9.23;;;6.10;;
18999;SDS011;9633;50.980;13.850;2022-12-07T06:29:47;7.37;;;5.80;;
18999;SDS011;9633;50.980;13.850;2022-12-07T06:31:20;8.90;;;6.30;;
18999;SDS011;9633;50.980;13.850;2022-12-07T06:32:52;8.90;;;6.23;;
18999;SDS011;9633;50.980;13.850;2022-12-07T06:34:26;7.30;;;5.37;;
18999;SDS011;9633;50.980;13.850;2022-12-07T06:35:59;7.57;;;5.83;;
18999;SDS011;9633;50.980;13.850;2022-12-07T06:37:32;7.47;;;5.60;;
18999;SDS011;9633;50.980;13.850;2022-12-07T06:39:06;8.87;;;5.87;;
18999;SDS011;9633;50.980;13.850;2022-12-07T06:40:41;7.60;;;5.50;;
18999;SDS011;9633;50.980;13.850;2022-12-07T06:42:14;6.40;;;5.40;;
18999;SDS011;9633;50.980;13.850;2022-12-07T06:43:47;7.97;;;5.70;;
18999;SDS011;9633;50.980;13.850;2022-12-07T06:45:26;9.00;;;6.20;;
18999;SDS011;9633;50.980;13.850;2022-12-07T06:46:59;8.43;;;5.27;;
18999;SDS011;9633;50.980;13.850;2022-12-07T06:48:53;8.93;;;5.90;;
18999;SDS011;9633;50.980;13.850;2022-12-07T06:50:26;8.37;;;5.63;;
18999;SDS011;9633;50.980;13.850;2022-12-07T06:51:59;9.70;;;6.40;;
18999;SDS011;9633;50.980;13.850;2022-12-07T06:53:32;8.83;;;6.23;;
18999;SDS011;9633;50.980;13.850;2022-12-07T06:55:06;7.70;;;5.57;;
18999;SDS011;9633;50.980;13.850;2022-12-07T06:56:41;8.93;;;5.40;;
18999;SDS011;9633;50.980;13.850;2022-12-07T06:58:14;8.47;;;6.43;;
18999;SDS011;9633;50.980;13.850;2022-12-07T06:59:46;8.53;;;6.13;;
18999;SDS011;9633;50.980;13.850;2022-12-07T07:01:19;8.77;;;6.07;;
18999;SDS011;9633;50.980;13.850;2022-12-07T07:02:53;9.17;;;6.53;;
18999;SDS011;9633;50.980;13.850;2022-12-07T07:04:26;9.57;;;6.50;;
18999;SDS011;9633;50.980;13.850;2022-12-07T07:05:59;11.03;;;6.33;;
18999;SDS011;9633;50.980;13.850;2022-12-07T07:07:32;9.17;;;5.83;;
18999;SDS011;9633;50.980;13.850;2022-12-07T07:09:25;9.30;;;6.77;;
18999;SDS011;9633;50.980;13.850;2022-12-07T07:10:58;10.30;;;6.90;;
18999;SDS011;9633;50.980;13.850;2022-12-07T07:12:33;8.17;;;6.00;;
18999;SDS011;9633;50.980;13.850;2022-12-07T07:14:06;8.50;;;5.90;;
18999;SDS011;9633;50.980;13.850;2022-12-07T07:15:39;6.97;;;5.60;;
18999;SDS011;9633;50.980;13.850;2022-12-07T07:17:12;7.87;;;5.60;;
18999;SDS011;9633;50.980;13.850;2022-12-07T07:18:45;7.30;;;5.77;;
18999;SDS011;9633;50.980;13.850;2022-12-07T07:20:18;8.93;;;5.77;;
18999;SDS011;9633;50.980;13.850;2022-12-07T07:21:51;8.07;;;5.90;;
18999;SDS011;9633;50.980;13.850;2022-12-07T07:23:25;8.43;;;5.53;;
18999;SDS011;9633;50.980;13.850;2022-12-07T07:24:58;8.23;;;5.50;;
18999;SDS011;9633;50.980;13.850;2022-12-07T07:26:31;5.93;;;5.33;;
18999;SDS011;9633;50.980;13.850;2022-12-07T07:28:05;7.00;;;5.30;;
18999;SDS011;9633;50.980;13.850;2022-12-07T07:29:39;6.87;;;5.53;;
18999;SDS011;9633;50.980;13.850;2022-12-07T07:31:12;7.37;;;5.80;;
18999;SDS011;9633;50.980;13.850;2022-12-07T07:32:45;7.33;;;6.07;;
18999;SDS011;9633;50.980;13.850;2022-12-07T07:34:18;8.30;;;6.33;;
18999;SDS011;9633;50.980;13.850;2022-12-07T07:35:51;8.03;;;6.17;;
18999;SDS011;9633;50.980;13.850;2022-12-07T07:37:24;8.40;;;6.33;;
18999;SDS011;9633;50.980;13.850;2022-12-07T07:38:58;8.63;;;6.07;;
18999;SDS011;9633;50.980;13.850;2022-12-07T07:40:31;10.67;;;6.97;;
18999;SDS011;9633;50.980;13.850;2022-12-07T07:42:04;8.27;;;6.17;;
18999;SDS011;9633;50.980;13.850;2022-12-07T07:43:40;7.80;;;6.10;;
18999;SDS011;9633;50.980;13.850;2022-12-07T07:45:13;9.37;;;6.57;;
18999;SDS011;9633;50.980;13.850;2022-12-07T07:46:46;9.93;;;6.43;;
18999;SDS011;9633;50.980;13.850;2022-12-07T07:48:19;8.30;;;6.27;;
18999;SDS011;9633;50.980;13.850;2022-12-07T07:49:53;8.20;;;5.80;;
18999;SDS011;9633;50.980;13.850;2022-12-07T07:51:27;8.70;;;6.57;;
18999;SDS011;9633;50.980;13.850;2022-12-07T07:53:00;8.67;;;6.53;;
18999;SDS011;9633;50.980;13.850;2022-12-07T07:54:33;7.63;;;5.77;;
18999;SDS011;9633;50.980;13.850;2022-12-07T07:56:06;9.27;;;6.20;;
18999;SDS011;9633;50.980;13.850;2022-12-07T07:57:40;7.47;;;5.57;;
18999;SDS011;9633;50.980;13.850;2022-12-07T07:59:18;7.30;;;5.63;;
18999;SDS011;9633;50.980;13.850;2022-12-07T08:00:51;8.90;;;6.30;;
18999;SDS011;9633;50.980;13.850;2022-12-07T08:02:25;8.07;;;6.17;;
18999;SDS011;9633;50.980;13.850;2022-12-07T08:04:00;7.27;;;5.50;;
18999;SDS011;9633;50.980;13.850;2022-12-07T08:05:34;8.00;;;5.47;;
18999;SDS011;9633;50.980;13.850;2022-12-07T08:07:08;8.43;;;6.30;;
18999;SDS011;9633;50.980;13.850;2022-12-07T08:08:42;7.83;;;6.53;;
18999;SDS011;9633;50.980;13.850;2022-12-07T08:10:15;9.43;;;6.40;;
18999;SDS011;9633;50.980;13.850;2022-12-07T08:11:48;7.90;;;6.40;;
18999;SDS011;9633;50.980;13.850;2022-12-07T08:13:21;7.97;;;6.63;;
18999;SDS011;9633;50.980;13.850;2022-12-07T08:15:02;8.57;;;6.60;;
18999;SDS011;9633;50.980;13.850;2022-12-07T08:16:37;8.97;;;6.63;;
18999;SDS011;9633;50.980;13.850;2022-12-07T08:18:10;8.87;;;7.00;;
18999;SDS011;9633;50.980;13.850;2022-12-07T08:19:44;9.53;;;7.23;;
18999;SDS011;9633;50.980;13.850;2022-12-07T08:21:17;10.30;;;7.53;;
18999;SDS011;9633;50.980;13.850;2022-12-07T08:22:50;9.93;;;7.53;;
18999;SDS011;9633;50.980;13.850;2022-12-07T08:24:23;10.63;;;7.97;;
18999;SDS011;9633;50.980;13.850;2022-12-07T08:25:59;9.80;;;8.23;;
18999;SDS011;9633;50.980;13.850;2022-12-07T08:27:32;9.83;;;7.47;;
18999;SDS011;9633;50.980;13.850;2022-12-07T08:29:06;9.40;;;7.40;;
18999;SDS011;9633;50.980;13.850;2022-12-07T08:30:40;10.60;;;8.00;;
18999;SDS011;9633;50.980;13.850;2022-12-07T08:32:13;10.63;;;7.83;;
18999;SDS011;9633;50.980;13.850;2022-12-07T08:33:46;10.30;;;7.40;;
18999;SDS011;9633;50.980;13.850;2022-12-07T08:35:20;11.57;;;8.07;;
18999;SDS011;9633;50.980;13.850;2022-12-07T08:36:53;11.33;;;7.40;;
18999;SDS011;9633;50.980;13.850;2022-12-07T08:38:26;9.20;;;7.40;;
18999;SDS011;9633;50.980;13.850;2022-12-07T08:40:03;9.03;;;7.00;;
18999;SDS011;9633;50.980;13.850;2022-12-07T08:41:37;10.13;;;7.47;;
18999;SDS011;9633;50.980;13.850;2022-12-07T08:43:10;9.37;;;7.73;;
18999;SDS011;9633;50.980;13.850;2022-12-07T08:44:43;11.10;;;7.13;;
18999;SDS011;9633;50.980;13.850;2022-12-07T08:46:19;10.80;;;7.90;;
18999;SDS011;9633;50.980;13.850;2022-12-07T08:47:56;10.70;;;6.97;;
18999;SDS011;9633;50.980;13.850;2022-12-07T08:49:35;8.87;;;7.33;;
18999;SDS011;9633;50.980;13.850;2022-12-07T08:51:11;13.40;;;7.80;;
18999;SDS011;9633;50.980;13.850;2022-12-07T08:52:47;11.20;;;7.33;;
18999;SDS011;9633;50.980;13.850;2022-12-07T08:54:22;10.57;;;7.87;;
18999;SDS011;9633;50.980;13.850;2022-12-07T08:55:56;9.57;;;7.40;;
18999;SDS011;9633;50.980;13.850;2022-12-07T08:57:30;10.03;;;6.73;;
18999;SDS011;9633;50.980;13.850;2022-12-07T08:59:06;9.20;;;6.90;;
18999;SDS011;9633;50.980;13.850;2022-12-07T09:00:39;7.63;;;6.43;;
18999;SDS011;9633;50.980;13.850;2022-12-07T09:02:15;8.10;;;6.63;;
18999;SDS011;9633;50.980;13.850;2022-12-07T09:03:48;8.90;;;6.43;;
18999;SDS011;9633;50.980;13.850;2022-12-07T09:05:21;9.20;;;6.23;;
18999;SDS011;9633;50.980;13.850;2022-12-07T09:06:55;7.57;;;6.47;;
18999;SDS011;9633;50.980;13.850;2022-12-07T09:08:29;9.73;;;6.47;;
18999;SDS011;9633;50.980;13.850;2022-12-07T09:10:05;11.80;;;6.87;;
18999;SDS011;9633;50.980;13.850;2022-12-07T09:11:39;8.00;;;6.53;;
18999;SDS011;9633;50.980;13.850;2022-12-07T09:13:12;8.77;;;6.90;;
18999;SDS011;9633;50.980;13.850;2022-12-07T09:14:45;7.63;;;6.80;;
18999;SDS011;9633;50.980;13.850;2022-12-07T09:16:18;9.03;;;6.57;;
18999;SDS011;9633;50.980;13.850;2022-12-07T09:17:53;8.43;;;6.80;;
18999;SDS011;9633;50.980;13.850;2022-12-07T09:19:26;9.53;;;6.57;;
18999;SDS011;9633;50.980;13.850;2022-12-07T09:20:59;8.23;;;6.73;;
18999;SDS011;9633;50.980;13.850;2022-12-07T09:22:32;8.93;;;6.93;;
18999;SDS011;9633;50.980;13.850;2022-12-07T09:24:06;8.10;;;6.47;;